Tropical Cyclones
[Index]
Main Index Home Page Stock Weather Photos Extreme Storms Discussion Storm News and Storm Chasing Reports Tropical Cyclones / Hurricanes / Typhoons Weather Data and Links Wild Fires / Bushfires Weather Observation Techniques Weather Picture Catalogue Tornado Pictures and Reports Stock Video Footage and DVDs for sale
Season 2011-2012 Tropical Cyclone LUA Track Map
Season 2011-2012 Summaries (Operational Data): [AU] [SIO] [SPAC] [SH]
<<- Previous TC | 2011-2012 Season | Next TC ->>

click for intensity scale information  Lat/long Grid: Show Hide

 Date Labels: Show Hide

Operational Tropical Cyclone Data : JTWC Advisories

Name: LUA
Number: 1217

08 Mar 2012 00:00 UTC to 19 Mar 2012 12:00 UTC

    date/time    lat    long     hPa   cat  kts
2012-03-08 00   12.2   113.2    1010         15          
2012-03-08 06   12.2   113.1    1010         15          
2012-03-08 12   12.2   113.0    1010         15          
2012-03-10 18   17.4   115.7    1010         15          
2012-03-11 00   17.4   115.7    1010         15          
2012-03-11 06   17.7   115.7    1010         15          
2012-03-11 12   18.0   115.7    1010         15          
2012-03-11 18   18.0   113.7    1010         15          
2012-03-12 00   18.1   114.4    1007         20          
2012-03-12 06   18.3   114.5    1004         25          
2012-03-12 12   18.5   114.6    1002         25          
2012-03-12 18   18.4   114.9    1000         30          
2012-03-13 00   18.5   115.2    1000         30          
2012-03-13 06   18.4   115.0    1000    1    35          
2012-03-13 12   18.0   114.3     996    1    35          
2012-03-13 18   17.4   113.3     996    1    35          
2012-03-14 00   16.6   112.6     996    1    35          
2012-03-14 06   16.0   112.6     989    1    45          
2012-03-14 12   15.7   112.8     982    2    55          
2012-03-14 18   15.7   113.0     978    2    60          
2012-03-15 00   15.6   113.3     978    2    60          
2012-03-15 03   15.7   113.0     978    2    60          
2012-03-15 06   15.6   112.8     974    3    65          
2012-03-15 09   15.4   113.0     974    3    65          
2012-03-15 12   15.4   113.3     970    3    70          
2012-03-15 18   15.6   114.6     970    3    70          
2012-03-16 00   16.2   115.5     967    3    75          
2012-03-16 06   16.3   116.5     963    3    80          
2012-03-16 12   16.8   117.7     956    4    90          
2012-03-16 18   17.7   118.7     956    4    90          
2012-03-17 00   18.6   119.5     956    4    90          
2012-03-17 06   19.7   120.0     952    4    95          
2012-03-17 12   21.5   120.3     978    2    60          
2012-03-17 15   22.1   120.3     983    2    50          
2012-03-17 21   23.7   120.3     988    1    40          
2012-03-18 00   24.6   120.3     988    1    35          
2012-03-18 03   26.0   120.3     989         30          
2012-03-18 06   27.6   120.5     994                     
2012-03-18 12   28.1   121.7     998                     
2012-03-18 18   30.4   122.5    1000                     
2012-03-19 00   32.5   125.0    1001                     
2012-03-19 06   33.1   127.4     998                     
2012-03-19 12   33.2   129.3    1001                     
Winds are 10-min average.

Tropical cyclone tracks developed by Michael Bath using operational warnings and advisories and Google Maps.


[Australian Severe Weather index] [Copyright Notice] [Email Contacts] [Search This Site] [Privacy Policy]
Document: tropical_cyclone_lua.htm Updated: 2 May 2017